sensor_id;sensor_type;location;lat;lon;timestamp;P1;durP1;ratioP1;P2;durP2;ratioP2
10874;SDS011;5490;52.200;8.786;2023-04-01T00:01:23;0.90;;;0.87;;
10874;SDS011;5490;52.200;8.786;2023-04-01T00:03:50;1.23;;;1.00;;
10874;SDS011;5490;52.200;8.786;2023-04-01T00:06:18;1.23;;;1.13;;
10874;SDS011;5490;52.200;8.786;2023-04-01T00:08:47;2.20;;;0.77;;
10874;SDS011;5490;52.200;8.786;2023-04-01T00:11:14;1.13;;;0.80;;
10874;SDS011;5490;52.200;8.786;2023-04-01T00:13:42;1.27;;;0.90;;
10874;SDS011;5490;52.200;8.786;2023-04-01T00:16:09;0.80;;;0.80;;
10874;SDS011;5490;52.200;8.786;2023-04-01T00:18:36;1.03;;;0.80;;
10874;SDS011;5490;52.200;8.786;2023-04-01T00:21:03;1.17;;;0.90;;
10874;SDS011;5490;52.200;8.786;2023-04-01T00:23:30;4.37;;;0.90;;
10874;SDS011;5490;52.200;8.786;2023-04-01T00:26:00;0.40;;;0.40;;
10874;SDS011;5490;52.200;8.786;2023-04-01T00:28:27;0.80;;;0.80;;
10874;SDS011;5490;52.200;8.786;2023-04-01T00:30:55;1.43;;;0.77;;
10874;SDS011;5490;52.200;8.786;2023-04-01T00:33:22;0.70;;;0.70;;
10874;SDS011;5490;52.200;8.786;2023-04-01T00:35:48;1.40;;;0.77;;
10874;SDS011;5490;52.200;8.786;2023-04-01T00:38:15;1.23;;;0.80;;
10874;SDS011;5490;52.200;8.786;2023-04-01T00:40:44;0.50;;;0.50;;
10874;SDS011;5490;52.200;8.786;2023-04-01T00:43:14;0.60;;;0.60;;
10874;SDS011;5490;52.200;8.786;2023-04-01T00:45:44;1.53;;;0.63;;
10874;SDS011;5490;52.200;8.786;2023-04-01T00:48:13;1.30;;;0.60;;
10874;SDS011;5490;52.200;8.786;2023-04-01T00:50:44;0.60;;;0.60;;
10874;SDS011;5490;52.200;8.786;2023-04-01T00:53:16;2.10;;;0.83;;
10874;SDS011;5490;52.200;8.786;2023-04-01T00:55:47;0.80;;;0.63;;
10874;SDS011;5490;52.200;8.786;2023-04-01T00:58:18;0.73;;;0.60;;
10874;SDS011;5490;52.200;8.786;2023-04-01T01:00:49;0.40;;;0.40;;
10874;SDS011;5490;52.200;8.786;2023-04-01T01:03:17;0.50;;;0.50;;
10874;SDS011;5490;52.200;8.786;2023-04-01T01:05:49;0.50;;;0.50;;
10874;SDS011;5490;52.200;8.786;2023-04-01T01:08:33;0.40;;;0.40;;
10874;SDS011;5490;52.200;8.786;2023-04-01T01:11:08;1.13;;;0.50;;
10874;SDS011;5490;52.200;8.786;2023-04-01T01:13:40;0.80;;;0.80;;
10874;SDS011;5490;52.200;8.786;2023-04-01T01:16:12;0.40;;;0.40;;
10874;SDS011;5490;52.200;8.786;2023-04-01T01:18:44;1.27;;;0.67;;
10874;SDS011;5490;52.200;8.786;2023-04-01T01:21:24;1.90;;;0.40;;
10874;SDS011;5490;52.200;8.786;2023-04-01T01:24:13;1.20;;;0.53;;
10874;SDS011;5490;52.200;8.786;2023-04-01T01:26:57;4.90;;;0.60;;
10874;SDS011;5490;52.200;8.786;2023-04-01T01:32:34;0.43;;;0.40;;
10874;SDS011;5490;52.200;8.786;2023-04-01T01:35:23;2.20;;;0.87;;
10874;SDS011;5490;52.200;8.786;2023-04-01T01:37:57;0.50;;;0.50;;
10874;SDS011;5490;52.200;8.786;2023-04-01T01:40:27;0.87;;;0.80;;
10874;SDS011;5490;52.200;8.786;2023-04-01T01:43:00;0.93;;;0.50;;
10874;SDS011;5490;52.200;8.786;2023-04-01T01:45:32;1.60;;;0.40;;
10874;SDS011;5490;52.200;8.786;2023-04-01T01:48:02;0.63;;;0.50;;
10874;SDS011;5490;52.200;8.786;2023-04-01T01:50:37;0.40;;;0.40;;
10874;SDS011;5490;52.200;8.786;2023-04-01T01:53:15;0.90;;;0.50;;
10874;SDS011;5490;52.200;8.786;2023-04-01T01:55:43;0.50;;;0.50;;
10874;SDS011;5490;52.200;8.786;2023-04-01T01:58:49;1.17;;;0.40;;
10874;SDS011;5490;52.200;8.786;2023-04-01T02:01:23;0.30;;;0.30;;
10874;SDS011;5490;52.200;8.786;2023-04-01T02:04:03;1.13;;;0.50;;
10874;SDS011;5490;52.200;8.786;2023-04-01T02:06:32;0.77;;;0.30;;
10874;SDS011;5490;52.200;8.786;2023-04-01T02:09:10;2.13;;;0.30;;
10874;SDS011;5490;52.200;8.786;2023-04-01T02:11:55;1.07;;;0.60;;
10874;SDS011;5490;52.200;8.786;2023-04-01T02:14:26;0.47;;;0.40;;
10874;SDS011;5490;52.200;8.786;2023-04-01T02:16:57;0.50;;;0.43;;
10874;SDS011;5490;52.200;8.786;2023-04-01T02:19:34;0.60;;;0.50;;
10874;SDS011;5490;52.200;8.786;2023-04-01T02:22:08;0.43;;;0.40;;
10874;SDS011;5490;52.200;8.786;2023-04-01T02:24:37;0.70;;;0.50;;
10874;SDS011;5490;52.200;8.786;2023-04-01T02:27:11;0.30;;;0.30;;
10874;SDS011;5490;52.200;8.786;2023-04-01T02:29:38;0.27;;;0.27;;
10874;SDS011;5490;52.200;8.786;2023-04-01T02:32:05;1.03;;;0.50;;
10874;SDS011;5490;52.200;8.786;2023-04-01T02:34:35;1.27;;;0.50;;
10874;SDS011;5490;52.200;8.786;2023-04-01T02:37:02;1.17;;;0.40;;
10874;SDS011;5490;52.200;8.786;2023-04-01T02:39:32;0.23;;;0.23;;
10874;SDS011;5490;52.200;8.786;2023-04-01T02:41:59;0.30;;;0.30;;
10874;SDS011;5490;52.200;8.786;2023-04-01T02:44:38;1.17;;;0.80;;
10874;SDS011;5490;52.200;8.786;2023-04-01T02:47:13;0.33;;;0.33;;
10874;SDS011;5490;52.200;8.786;2023-04-01T02:49:40;0.27;;;0.27;;
10874;SDS011;5490;52.200;8.786;2023-04-01T02:52:07;2.00;;;0.53;;
10874;SDS011;5490;52.200;8.786;2023-04-01T02:54:42;0.20;;;0.20;;
10874;SDS011;5490;52.200;8.786;2023-04-01T02:57:09;0.13;;;0.13;;
10874;SDS011;5490;52.200;8.786;2023-04-01T02:59:45;0.43;;;0.40;;
10874;SDS011;5490;52.200;8.786;2023-04-01T03:02:12;0.90;;;0.90;;
10874;SDS011;5490;52.200;8.786;2023-04-01T03:08:25;1.43;;;0.40;;
10874;SDS011;5490;52.200;8.786;2023-04-01T03:10:52;0.40;;;0.40;;
10874;SDS011;5490;52.200;8.786;2023-04-01T03:13:18;0.93;;;0.40;;
10874;SDS011;5490;52.200;8.786;2023-04-01T03:15:45;1.50;;;0.83;;
10874;SDS011;5490;52.200;8.786;2023-04-01T03:22:14;0.50;;;0.30;;
10874;SDS011;5490;52.200;8.786;2023-04-01T03:30:56;0.20;;;0.20;;
10874;SDS011;5490;52.200;8.786;2023-04-01T03:33:23;0.93;;;0.50;;
10874;SDS011;5490;52.200;8.786;2023-04-01T03:35:50;0.30;;;0.30;;
10874;SDS011;5490;52.200;8.786;2023-04-01T03:38:17;0.97;;;0.43;;
10874;SDS011;5490;52.200;8.786;2023-04-01T03:40:44;0.40;;;0.40;;
10874;SDS011;5490;52.200;8.786;2023-04-01T03:56:08;0.37;;;0.37;;
10874;SDS011;5490;52.200;8.786;2023-04-01T03:58:36;1.07;;;0.33;;
10874;SDS011;5490;52.200;8.786;2023-04-01T04:01:12;0.23;;;0.23;;
10874;SDS011;5490;52.200;8.786;2023-04-01T04:03:39;0.20;;;0.20;;
10874;SDS011;5490;52.200;8.786;2023-04-01T04:06:10;0.20;;;0.20;;
10874;SDS011;5490;52.200;8.786;2023-04-01T04:08:37;0.00;;;0.00;;
10874;SDS011;5490;52.200;8.786;2023-04-01T04:11:04;0.30;;;0.30;;
10874;SDS011;5490;52.200;8.786;2023-04-01T04:13:33;0.20;;;0.20;;
10874;SDS011;5490;52.200;8.786;2023-04-01T04:16:00;0.27;;;0.27;;
10874;SDS011;5490;52.200;8.786;2023-04-01T04:18:27;0.47;;;0.10;;
10874;SDS011;5490;52.200;8.786;2023-04-01T04:20:54;0.20;;;0.20;;
10874;SDS011;5490;52.200;8.786;2023-04-01T04:23:21;0.20;;;0.20;;
10874;SDS011;5490;52.200;8.786;2023-04-01T04:25:54;0.30;;;0.30;;
10874;SDS011;5490;52.200;8.786;2023-04-01T04:28:25;0.17;;;0.17;;
10874;SDS011;5490;52.200;8.786;2023-04-01T04:30:52;0.87;;;0.30;;
10874;SDS011;5490;52.200;8.786;2023-04-01T04:33:19;0.10;;;0.10;;
10874;SDS011;5490;52.200;8.786;2023-04-01T04:35:47;0.30;;;0.30;;
10874;SDS011;5490;52.200;8.786;2023-04-01T04:38:14;0.13;;;0.13;;
10874;SDS011;5490;52.200;8.786;2023-04-01T04:40:41;0.47;;;0.30;;
10874;SDS011;5490;52.200;8.786;2023-04-01T04:43:09;0.30;;;0.30;;
10874;SDS011;5490;52.200;8.786;2023-04-01T04:45:38;0.10;;;0.10;;
10874;SDS011;5490;52.200;8.786;2023-04-01T04:48:06;0.13;;;0.13;;
10874;SDS011;5490;52.200;8.786;2023-04-01T04:50:34;0.20;;;0.20;;
10874;SDS011;5490;52.200;8.786;2023-04-01T04:53:00;0.20;;;0.20;;
10874;SDS011;5490;52.200;8.786;2023-04-01T04:55:30;0.17;;;0.17;;
10874;SDS011;5490;52.200;8.786;2023-04-01T04:57:57;0.20;;;0.20;;
10874;SDS011;5490;52.200;8.786;2023-04-01T05:00:24;0.50;;;0.50;;
10874;SDS011;5490;52.200;8.786;2023-04-01T05:06:05;0.70;;;0.40;;
10874;SDS011;5490;52.200;8.786;2023-04-01T05:12:08;0.60;;;0.27;;
10874;SDS011;5490;52.200;8.786;2023-04-01T05:14:41;0.13;;;0.13;;
10874;SDS011;5490;52.200;8.786;2023-04-01T05:41:11;0.17;;;0.17;;
10874;SDS011;5490;52.200;8.786;2023-04-01T05:44:01;0.10;;;0.10;;
10874;SDS011;5490;52.200;8.786;2023-04-01T05:47:15;0.53;;;0.40;;
10874;SDS011;5490;52.200;8.786;2023-04-01T05:55:56;0.43;;;0.30;;
10874;SDS011;5490;52.200;8.786;2023-04-01T06:02:03;0.27;;;0.20;;
10874;SDS011;5490;52.200;8.786;2023-04-01T06:04:31;3.13;;;0.30;;
10874;SDS011;5490;52.200;8.786;2023-04-01T06:07:08;0.20;;;0.20;;
10874;SDS011;5490;52.200;8.786;2023-04-01T06:09:46;0.10;;;0.10;;
10874;SDS011;5490;52.200;8.786;2023-04-01T06:12:25;0.87;;;0.33;;
10874;SDS011;5490;52.200;8.786;2023-04-01T06:15:29;0.20;;;0.20;;
10874;SDS011;5490;52.200;8.786;2023-04-01T06:24:34;0.17;;;0.17;;
10874;SDS011;5490;52.200;8.786;2023-04-01T06:34:17;0.20;;;0.20;;
10874;SDS011;5490;52.200;8.786;2023-04-01T06:37:31;0.30;;;0.30;;
10874;SDS011;5490;52.200;8.786;2023-04-01T06:44:12;0.40;;;0.17;;
10874;SDS011;5490;52.200;8.786;2023-04-01T06:58:59;0.33;;;0.33;;
10874;SDS011;5490;52.200;8.786;2023-04-01T07:01:34;0.30;;;0.30;;
10874;SDS011;5490;52.200;8.786;2023-04-01T07:04:05;0.20;;;0.20;;
10874;SDS011;5490;52.200;8.786;2023-04-01T07:06:42;0.20;;;0.20;;
10874;SDS011;5490;52.200;8.786;2023-04-01T07:09:16;0.87;;;0.30;;
10874;SDS011;5490;52.200;8.786;2023-04-01T07:15:05;0.20;;;0.20;;
10874;SDS011;5490;52.200;8.786;2023-04-01T07:21:31;0.10;;;0.10;;
10874;SDS011;5490;52.200;8.786;2023-04-01T07:24:57;0.27;;;0.27;;
10874;SDS011;5490;52.200;8.786;2023-04-01T07:31:30;0.30;;;0.30;;
10874;SDS011;5490;52.200;8.786;2023-04-01T07:34:08;0.25;;;0.25;;
10874;SDS011;5490;52.200;8.786;2023-04-01T07:40:10;0.20;;;0.20;;
10874;SDS011;5490;52.200;8.786;2023-04-01T07:42:57;0.20;;;0.20;;
10874;SDS011;5490;52.200;8.786;2023-04-01T07:45:50;0.20;;;0.20;;
10874;SDS011;5490;52.200;8.786;2023-04-01T07:48:26;0.98;;;0.50;;
10874;SDS011;5490;52.200;8.786;2023-04-01T07:50:59;0.68;;;0.45;;
10874;SDS011;5490;52.200;8.786;2023-04-01T07:53:30;0.20;;;0.20;;
10874;SDS011;5490;52.200;8.786;2023-04-01T07:56:06;0.40;;;0.40;;
10874;SDS011;5490;52.200;8.786;2023-04-01T07:58:36;0.45;;;0.30;;
10874;SDS011;5490;52.200;8.786;2023-04-01T08:01:13;0.25;;;0.25;;
10874;SDS011;5490;52.200;8.786;2023-04-01T08:03:51;0.20;;;0.20;;
10874;SDS011;5490;52.200;8.786;2023-04-01T08:06:30;0.30;;;0.30;;
10874;SDS011;5490;52.200;8.786;2023-04-01T08:09:02;0.40;;;0.40;;
10874;SDS011;5490;52.200;8.786;2023-04-01T08:11:41;0.38;;;0.38;;
10874;SDS011;5490;52.200;8.786;2023-04-01T08:14:21;0.90;;;0.57;;
10874;SDS011;5490;52.200;8.786;2023-04-01T08:16:57;0.30;;;0.30;;
10874;SDS011;5490;52.200;8.786;2023-04-01T08:19:31;4.13;;;0.60;;
10874;SDS011;5490;52.200;8.786;2023-04-01T08:22:14;0.63;;;0.60;;
10874;SDS011;5490;52.200;8.786;2023-04-01T08:24:47;0.90;;;0.50;;
10874;SDS011;5490;52.200;8.786;2023-04-01T08:27:20;0.40;;;0.40;;
10874;SDS011;5490;52.200;8.786;2023-04-01T08:29:51;0.43;;;0.43;;
10874;SDS011;5490;52.200;8.786;2023-04-01T08:32:25;3.38;;;0.55;;
10874;SDS011;5490;52.200;8.786;2023-04-01T08:34:58;0.50;;;0.50;;
10874;SDS011;5490;52.200;8.786;2023-04-01T08:37:35;0.40;;;0.40;;
10874;SDS011;5490;52.200;8.786;2023-04-01T08:40:13;0.47;;;0.47;;
10874;SDS011;5490;52.200;8.786;2023-04-01T08:43:08;0.47;;;0.47;;
10874;SDS011;5490;52.200;8.786;2023-04-01T08:45:56;5.00;;;0.60;;
10874;SDS011;5490;52.200;8.786;2023-04-01T08:48:48;0.40;;;0.40;;
10874;SDS011;5490;52.200;8.786;2023-04-01T08:51:41;0.40;;;0.40;;
10874;SDS011;5490;52.200;8.786;2023-04-01T08:54:36;1.42;;;1.00;;
10874;SDS011;5490;52.200;8.786;2023-04-01T08:57:13;0.70;;;0.70;;
10874;SDS011;5490;52.200;8.786;2023-04-01T08:59:52;0.30;;;0.30;;
10874;SDS011;5490;52.200;8.786;2023-04-01T09:05:52;0.63;;;0.63;;
10874;SDS011;5490;52.200;8.786;2023-04-01T09:08:42;0.28;;;0.28;;
10874;SDS011;5490;52.200;8.786;2023-04-01T09:11:22;1.33;;;0.70;;
10874;SDS011;5490;52.200;8.786;2023-04-01T09:14:03;0.37;;;0.30;;
10874;SDS011;5490;52.200;8.786;2023-04-01T09:16:46;0.45;;;0.45;;
10874;SDS011;5490;52.200;8.786;2023-04-01T09:19:33;0.60;;;0.60;;
10874;SDS011;5490;52.200;8.786;2023-04-01T09:22:23;0.50;;;0.43;;
10874;SDS011;5490;52.200;8.786;2023-04-01T09:25:15;0.80;;;0.50;;
10874;SDS011;5490;52.200;8.786;2023-04-01T09:27:54;0.43;;;0.43;;
10874;SDS011;5490;52.200;8.786;2023-04-01T09:30:33;0.47;;;0.47;;
10874;SDS011;5490;52.200;8.786;2023-04-01T09:36:26;0.73;;;0.73;;
10874;SDS011;5490;52.200;8.786;2023-04-01T09:39:15;1.63;;;1.02;;
10874;SDS011;5490;52.200;8.786;2023-04-01T09:41:57;3.70;;;0.70;;
10874;SDS011;5490;52.200;8.786;2023-04-01T09:44:33;0.45;;;0.45;;
10874;SDS011;5490;52.200;8.786;2023-04-01T09:47:06;0.70;;;0.70;;
10874;SDS011;5490;52.200;8.786;2023-04-01T09:50:09;0.60;;;0.60;;
10874;SDS011;5490;52.200;8.786;2023-04-01T09:52:55;0.43;;;0.43;;
10874;SDS011;5490;52.200;8.786;2023-04-01T09:55:57;2.05;;;0.60;;
10874;SDS011;5490;52.200;8.786;2023-04-01T09:58:57;0.35;;;0.35;;
10874;SDS011;5490;52.200;8.786;2023-04-01T10:08:29;0.73;;;0.60;;
10874;SDS011;5490;52.200;8.786;2023-04-01T10:17:15;1.67;;;1.15;;
10874;SDS011;5490;52.200;8.786;2023-04-01T10:20:09;1.13;;;0.73;;
10874;SDS011;5490;52.200;8.786;2023-04-01T10:26:17;0.70;;;0.65;;
10874;SDS011;5490;52.200;8.786;2023-04-01T10:32:14;0.50;;;0.50;;
10874;SDS011;5490;52.200;8.786;2023-04-01T10:38:30;0.50;;;0.50;;
10874;SDS011;5490;52.200;8.786;2023-04-01T10:41:28;0.82;;;0.82;;
10874;SDS011;5490;52.200;8.786;2023-04-01T10:44:21;0.77;;;0.77;;
10874;SDS011;5490;52.200;8.786;2023-04-01T10:47:16;0.60;;;0.60;;
10874;SDS011;5490;52.200;8.786;2023-04-01T10:50:24;0.60;;;0.60;;
10874;SDS011;5490;52.200;8.786;2023-04-01T10:53:03;0.80;;;0.80;;
10874;SDS011;5490;52.200;8.786;2023-04-01T10:56:00;0.80;;;0.80;;
10874;SDS011;5490;52.200;8.786;2023-04-01T11:11:25;0.70;;;0.70;;
10874;SDS011;5490;52.200;8.786;2023-04-01T11:20:41;0.32;;;0.32;;
10874;SDS011;5490;52.200;8.786;2023-04-01T11:23:31;0.90;;;0.52;;
10874;SDS011;5490;52.200;8.786;2023-04-01T11:26:21;0.60;;;0.57;;
10874;SDS011;5490;52.200;8.786;2023-04-01T11:29:04;0.40;;;0.40;;
10874;SDS011;5490;52.200;8.786;2023-04-01T11:31:49;0.65;;;0.60;;
10874;SDS011;5490;52.200;8.786;2023-04-01T11:34:26;0.50;;;0.47;;
10874;SDS011;5490;52.200;8.786;2023-04-01T11:37:25;0.52;;;0.52;;
10874;SDS011;5490;52.200;8.786;2023-04-01T11:40:05;0.68;;;0.65;;
10874;SDS011;5490;52.200;8.786;2023-04-01T11:42:42;0.50;;;0.50;;
10874;SDS011;5490;52.200;8.786;2023-04-01T11:45:23;0.20;;;0.20;;
10874;SDS011;5490;52.200;8.786;2023-04-01T11:48:07;0.30;;;0.30;;
10874;SDS011;5490;52.200;8.786;2023-04-01T11:50:45;0.45;;;0.45;;
10874;SDS011;5490;52.200;8.786;2023-04-01T11:53:31;0.30;;;0.30;;
10874;SDS011;5490;52.200;8.786;2023-04-01T11:56:13;0.40;;;0.40;;
10874;SDS011;5490;52.200;8.786;2023-04-01T11:58:59;0.30;;;0.30;;
10874;SDS011;5490;52.200;8.786;2023-04-01T12:01:45;0.40;;;0.40;;
10874;SDS011;5490;52.200;8.786;2023-04-01T12:04:29;0.50;;;0.50;;
10874;SDS011;5490;52.200;8.786;2023-04-01T12:07:06;1.27;;;0.85;;
10874;SDS011;5490;52.200;8.786;2023-04-01T12:09:44;0.35;;;0.35;;
10874;SDS011;5490;52.200;8.786;2023-04-01T12:12:20;0.43;;;0.43;;
10874;SDS011;5490;52.200;8.786;2023-04-01T12:14:59;0.50;;;0.50;;
10874;SDS011;5490;52.200;8.786;2023-04-01T12:17:36;0.20;;;0.20;;
10874;SDS011;5490;52.200;8.786;2023-04-01T12:20:25;0.30;;;0.30;;
10874;SDS011;5490;52.200;8.786;2023-04-01T12:23:03;0.45;;;0.45;;
10874;SDS011;5490;52.200;8.786;2023-04-01T12:25:53;0.50;;;0.50;;
10874;SDS011;5490;52.200;8.786;2023-04-01T12:28:35;0.50;;;0.50;;
10874;SDS011;5490;52.200;8.786;2023-04-01T12:31:17;0.17;;;0.17;;
10874;SDS011;5490;52.200;8.786;2023-04-01T12:33:54;0.30;;;0.30;;
10874;SDS011;5490;52.200;8.786;2023-04-01T12:36:55;0.55;;;0.40;;
10874;SDS011;5490;52.200;8.786;2023-04-01T12:39:37;0.35;;;0.35;;
10874;SDS011;5490;52.200;8.786;2023-04-01T12:42:36;0.63;;;0.43;;
10874;SDS011;5490;52.200;8.786;2023-04-01T12:45:23;0.30;;;0.30;;
10874;SDS011;5490;52.200;8.786;2023-04-01T12:48:01;0.22;;;0.22;;
10874;SDS011;5490;52.200;8.786;2023-04-01T12:50:56;1.42;;;0.57;;
10874;SDS011;5490;52.200;8.786;2023-04-01T12:53:51;0.50;;;0.50;;
10874;SDS011;5490;52.200;8.786;2023-04-01T12:56:40;0.88;;;0.70;;
10874;SDS011;5490;52.200;8.786;2023-04-01T12:59:22;2.40;;;0.68;;
10874;SDS011;5490;52.200;8.786;2023-04-01T13:02:04;0.60;;;0.60;;
10874;SDS011;5490;52.200;8.786;2023-04-01T13:04:48;0.70;;;0.70;;
10874;SDS011;5490;52.200;8.786;2023-04-01T13:07:44;0.70;;;0.70;;
10874;SDS011;5490;52.200;8.786;2023-04-01T13:10:30;2.47;;;0.75;;
10874;SDS011;5490;52.200;8.786;2023-04-01T13:13:15;0.80;;;0.80;;
10874;SDS011;5490;52.200;8.786;2023-04-01T13:15:58;1.27;;;1.02;;
10874;SDS011;5490;52.200;8.786;2023-04-01T13:18:31;1.08;;;0.98;;
10874;SDS011;5490;52.200;8.786;2023-04-01T13:21:05;0.70;;;0.70;;
10874;SDS011;5490;52.200;8.786;2023-04-01T13:23:40;1.40;;;1.20;;
10874;SDS011;5490;52.200;8.786;2023-04-01T13:26:22;0.98;;;0.90;;
10874;SDS011;5490;52.200;8.786;2023-04-01T13:28:57;0.95;;;0.88;;
10874;SDS011;5490;52.200;8.786;2023-04-01T13:31:34;1.27;;;1.02;;
10874;SDS011;5490;52.200;8.786;2023-04-01T13:34:15;2.38;;;1.08;;
10874;SDS011;5490;52.200;8.786;2023-04-01T13:36:54;1.05;;;0.73;;
10874;SDS011;5490;52.200;8.786;2023-04-01T13:39:41;0.82;;;0.80;;
10874;SDS011;5490;52.200;8.786;2023-04-01T13:42:21;0.57;;;0.57;;
10874;SDS011;5490;52.200;8.786;2023-04-01T13:51:24;0.63;;;0.55;;
10874;SDS011;5490;52.200;8.786;2023-04-01T13:54:33;1.10;;;0.63;;
10874;SDS011;5490;52.200;8.786;2023-04-01T14:22:09;0.28;;;0.28;;
10874;SDS011;5490;52.200;8.786;2023-04-01T14:36:01;0.50;;;0.50;;
10874;SDS011;5490;52.200;8.786;2023-04-01T14:49:24;1.15;;;0.60;;
10874;SDS011;5490;52.200;8.786;2023-04-01T14:56:01;0.40;;;0.40;;
10874;SDS011;5490;52.200;8.786;2023-04-01T15:17:43;0.30;;;0.30;;
10874;SDS011;5490;52.200;8.786;2023-04-01T15:19:39;0.38;;;0.38;;
10874;SDS011;5490;52.200;8.786;2023-04-01T15:22:52;0.82;;;0.40;;
10874;SDS011;5490;52.200;8.786;2023-04-01T15:26:01;1.77;;;0.88;;
10874;SDS011;5490;52.200;8.786;2023-04-01T15:32:17;0.60;;;0.50;;
10874;SDS011;5490;52.200;8.786;2023-04-01T15:35:12;1.17;;;1.08;;
10874;SDS011;5490;52.200;8.786;2023-04-01T15:37:56;0.70;;;0.68;;
10874;SDS011;5490;52.200;8.786;2023-04-01T15:40:47;0.45;;;0.45;;
10874;SDS011;5490;52.200;8.786;2023-04-01T15:43:30;0.60;;;0.60;;
10874;SDS011;5490;52.200;8.786;2023-04-01T15:49:22;0.50;;;0.50;;
10874;SDS011;5490;52.200;8.786;2023-04-01T15:52:03;1.75;;;1.38;;
10874;SDS011;5490;52.200;8.786;2023-04-01T15:57:40;2.38;;;1.58;;
10874;SDS011;5490;52.200;8.786;2023-04-01T16:00:20;1.35;;;1.15;;
10874;SDS011;5490;52.200;8.786;2023-04-01T16:03:08;2.38;;;1.13;;
10874;SDS011;5490;52.200;8.786;2023-04-01T16:05:59;1.60;;;1.20;;
10874;SDS011;5490;52.200;8.786;2023-04-01T16:09:02;0.90;;;0.90;;
10874;SDS011;5490;52.200;8.786;2023-04-01T16:11:43;1.13;;;1.00;;
10874;SDS011;5490;52.200;8.786;2023-04-01T16:14:23;1.07;;;0.97;;
10874;SDS011;5490;52.200;8.786;2023-04-01T16:17:05;0.90;;;0.90;;
10874;SDS011;5490;52.200;8.786;2023-04-01T16:19:58;1.73;;;1.63;;
10874;SDS011;5490;52.200;8.786;2023-04-01T16:22:55;2.30;;;1.93;;
10874;SDS011;5490;52.200;8.786;2023-04-01T16:25:31;1.60;;;1.50;;
10874;SDS011;5490;52.200;8.786;2023-04-01T16:28:21;1.33;;;1.10;;
10874;SDS011;5490;52.200;8.786;2023-04-01T16:30:55;0.80;;;0.80;;
10874;SDS011;5490;52.200;8.786;2023-04-01T16:33:32;1.07;;;1.03;;
10874;SDS011;5490;52.200;8.786;2023-04-01T16:39:15;1.80;;;1.40;;
10874;SDS011;5490;52.200;8.786;2023-04-01T16:42:17;1.60;;;1.30;;
10874;SDS011;5490;52.200;8.786;2023-04-01T16:44:53;2.00;;;1.47;;
10874;SDS011;5490;52.200;8.786;2023-04-01T16:47:46;2.00;;;1.43;;
10874;SDS011;5490;52.200;8.786;2023-04-01T16:50:39;1.20;;;1.10;;
10874;SDS011;5490;52.200;8.786;2023-04-01T16:53:36;1.30;;;1.20;;
10874;SDS011;5490;52.200;8.786;2023-04-01T16:56:38;1.50;;;1.20;;
10874;SDS011;5490;52.200;8.786;2023-04-01T16:59:17;1.27;;;1.17;;
10874;SDS011;5490;52.200;8.786;2023-04-01T17:02:08;3.47;;;0.87;;
10874;SDS011;5490;52.200;8.786;2023-04-01T17:06:19;1.13;;;1.03;;
10874;SDS011;5490;52.200;8.786;2023-04-01T17:11:20;0.70;;;0.70;;
10874;SDS011;5490;52.200;8.786;2023-04-01T17:13:52;1.10;;;1.00;;
